createdAt,value
2019-04-09T00:01:55.144Z,15.27
2019-04-09T00:04:27.409Z,15.13
2019-04-09T00:06:58.450Z,16.57
2019-04-09T00:09:30.066Z,16.20
2019-04-09T00:12:01.529Z,16.17
2019-04-09T00:14:33.910Z,17.03
2019-04-09T00:17:05.801Z,16.03
2019-04-09T00:19:37.349Z,16.33
2019-04-09T00:22:08.778Z,17.33
2019-04-09T00:24:41.308Z,18.33
2019-04-09T00:27:24.506Z,17.33
2019-04-09T00:29:56.084Z,18.87
2019-04-09T00:32:28.238Z,18.57
2019-04-09T00:35:00.684Z,21.27
2019-04-09T00:37:32.329Z,16.57
2019-04-09T00:40:04.013Z,19.50
2019-04-09T00:42:35.775Z,19.73
2019-04-09T00:45:07.445Z,18.60
2019-04-09T00:47:39.060Z,17.67
2019-04-09T00:50:10.569Z,16.93
2019-04-09T00:52:42.691Z,19.17
2019-04-09T00:55:14.699Z,19.70
2019-04-09T00:57:47.339Z,19.50
2019-04-09T01:00:23.030Z,18.00
2019-04-09T01:02:54.500Z,19.00
2019-04-09T01:05:26.002Z,18.17
2019-04-09T01:10:30.414Z,19.90
2019-04-09T01:13:02.185Z,17.53
2019-04-09T01:15:33.833Z,17.97
2019-04-09T01:18:06.499Z,18.93
2019-04-09T01:20:40.390Z,17.33
2019-04-09T01:23:13.649Z,18.07
2019-04-09T01:26:16.597Z,18.40
2019-04-09T01:28:57.689Z,16.90
2019-04-09T01:31:39.858Z,16.47
2019-04-09T01:34:30.858Z,17.73
2019-04-09T01:37:16.943Z,15.73
2019-04-09T01:40:17.374Z,16.53
2019-04-09T01:43:14.106Z,16.23
2019-04-09T01:45:55.496Z,16.93
2019-04-09T01:48:54.837Z,17.17
2019-04-09T01:51:33.304Z,15.47
2019-04-09T01:54:15.424Z,17.10
2019-04-09T01:56:53.784Z,16.47
2019-04-09T01:59:42.780Z,16.93
2019-04-09T02:02:29.725Z,16.57
2019-04-09T02:05:20.947Z,15.33
2019-04-09T02:08:11.725Z,15.60
2019-04-09T02:11:01.635Z,16.27
2019-04-09T02:13:48.898Z,16.10
2019-04-09T02:16:29.476Z,15.63
2019-04-09T02:19:11.357Z,16.00
2019-04-09T02:22:11.646Z,16.33
2019-04-09T02:25:08.208Z,15.03
2019-04-09T02:27:58.388Z,15.60
2019-04-09T02:30:41.630Z,17.37
2019-04-09T02:33:40.801Z,17.47
2019-04-09T02:36:24.433Z,16.43
2019-04-09T02:39:12.560Z,16.13
2019-04-09T02:42:04.150Z,17.47
2019-04-09T02:44:55.771Z,16.00
2019-04-09T02:47:46.262Z,17.93
2019-04-09T02:50:37.007Z,16.93
2019-04-09T02:53:27.525Z,16.17
2019-04-09T02:56:33.080Z,16.63
2019-04-09T02:59:20.256Z,15.80
2019-04-09T03:01:57.004Z,17.63
2019-04-09T03:04:43.309Z,17.97
2019-04-09T03:07:39.747Z,18.07
2019-04-09T03:10:18.216Z,17.53
2019-04-09T03:13:05.973Z,17.40
2019-04-09T03:15:49.041Z,17.77
2019-04-09T03:18:42.011Z,17.53
2019-04-09T03:21:21.793Z,16.93
2019-04-09T03:24:14.261Z,17.17
2019-04-09T03:27:20.339Z,16.27
2019-04-09T03:30:10.333Z,17.27
2019-04-09T03:33:02.842Z,16.83
2019-04-09T03:36:07.085Z,16.93
2019-04-09T03:38:53.053Z,18.10
2019-04-09T03:41:43.289Z,17.70
2019-04-09T03:44:35.642Z,18.03
2019-04-09T03:47:26.283Z,18.37
2019-04-09T03:50:31.981Z,18.30
2019-04-09T03:53:14.350Z,18.20
2019-04-09T03:56:02.939Z,18.03
2019-04-09T03:58:56.636Z,18.17
2019-04-09T04:01:38.989Z,20.20
2019-04-09T04:04:20.112Z,17.20
2019-04-09T04:07:11.005Z,17.07
2019-04-09T04:10:09.061Z,18.63
2019-04-09T04:13:00.361Z,20.97
2019-04-09T04:15:59.722Z,20.17
2019-04-09T04:18:44.776Z,19.33
2019-04-09T04:21:37.999Z,18.20
2019-04-09T04:24:41.053Z,21.53
2019-04-09T04:27:29.840Z,20.40
2019-04-09T04:30:23.539Z,20.27
2019-04-09T04:33:08.941Z,18.73
2019-04-09T04:36:02.162Z,19.63
2019-04-09T04:39:04.618Z,19.70
2019-04-09T04:41:44.772Z,20.70
2019-04-09T04:44:26.104Z,20.40
2019-04-09T04:47:22.693Z,21.57
2019-04-09T04:50:29.315Z,20.83
2019-04-09T04:53:29.161Z,21.00
2019-04-09T04:56:20.032Z,20.93
2019-04-09T04:59:11.646Z,22.70
2019-04-09T05:02:02.582Z,22.33
2019-04-09T05:05:02.558Z,22.80
2019-04-09T05:07:53.169Z,24.80
2019-04-09T05:10:43.883Z,22.03
2019-04-09T05:13:33.092Z,26.87
2019-04-09T05:16:17.421Z,25.67
2019-04-09T05:19:17.123Z,25.13
2019-04-09T05:21:58.862Z,27.33
2019-04-09T05:24:54.346Z,27.40
2019-04-09T05:27:44.600Z,26.80
2019-04-09T05:30:22.058Z,27.27
2019-04-09T05:33:16.380Z,27.77
2019-04-09T05:36:05.594Z,27.63
2019-04-09T05:38:54.910Z,27.43
2019-04-09T05:41:52.283Z,25.83
2019-04-09T05:51:17.216Z,24.93
2019-04-09T05:53:55.578Z,26.70
2019-04-09T05:56:54.264Z,26.20
2019-04-09T05:59:35.369Z,25.23
2019-04-09T06:02:26.039Z,26.10
2019-04-09T06:05:16.428Z,26.97
2019-04-09T06:07:57.628Z,26.80
2019-04-09T06:10:30.278Z,27.70
2019-04-09T06:13:02.938Z,26.57
2019-04-09T06:15:35.544Z,26.43
2019-04-09T06:18:07.963Z,26.83
2019-04-09T06:20:40.297Z,27.87
2019-04-09T06:23:12.037Z,27.87
2019-04-09T06:25:44.031Z,25.93
2019-04-09T06:28:15.701Z,25.07
2019-04-09T06:30:47.304Z,24.63
2019-04-09T06:33:40.748Z,26.43
2019-04-09T06:36:22.909Z,25.57
2019-04-09T06:39:22.850Z,25.20
2019-04-09T06:42:00.379Z,25.50
2019-04-09T06:44:37.945Z,26.67
2019-04-09T06:47:28.664Z,27.07
2019-04-09T06:50:09.372Z,27.33
2019-04-09T06:52:59.897Z,27.10
2019-04-09T06:55:47.134Z,27.43
2019-04-09T06:58:36.932Z,30.87
2019-04-09T07:01:24.886Z,28.20
2019-04-09T07:04:13.233Z,25.67
2019-04-09T07:07:07.361Z,26.43
2019-04-09T07:10:10.724Z,28.07
2019-04-09T07:12:55.975Z,28.50
2019-04-09T07:15:49.642Z,28.53
2019-04-09T07:18:35.620Z,25.53
2019-04-09T07:21:13.976Z,26.10
2019-04-09T07:23:54.309Z,26.10
2019-04-09T07:26:44.526Z,27.87
2019-04-09T07:29:50.417Z,26.53
2019-04-09T07:32:40.890Z,27.90
2019-04-09T07:35:20.913Z,26.63
2019-04-09T07:38:22.951Z,26.70
2019-04-09T07:41:12.219Z,26.20
2019-04-09T07:44:03.845Z,27.30
2019-04-09T07:46:46.763Z,27.40
2019-04-09T07:49:35.704Z,27.43
2019-04-09T07:52:36.554Z,27.47
2019-04-09T07:55:27.060Z,27.73
2019-04-09T07:58:17.692Z,27.70
2019-04-09T08:00:55.559Z,28.23
2019-04-09T08:03:53.393Z,24.50
2019-04-09T08:06:33.393Z,30.70
2019-04-09T08:09:31.912Z,26.13
2019-04-09T08:12:31.285Z,27.37
2019-04-09T08:15:36.693Z,27.10
2019-04-09T08:18:19.092Z,25.73
2019-04-09T08:21:10.533Z,27.97
2019-04-09T08:24:01.726Z,29.73
2019-04-09T08:26:52.409Z,29.27
2019-04-09T08:29:49.964Z,26.07
2019-04-09T08:32:32.042Z,26.60
2019-04-09T08:35:16.021Z,26.87
2019-04-09T08:37:59.659Z,26.97
2019-04-09T08:40:49.660Z,26.43
2019-04-09T08:43:44.180Z,27.97
2019-04-09T08:46:34.375Z,25.37
2019-04-09T08:49:17.879Z,26.40
2019-04-09T08:52:11.915Z,24.53
2019-04-09T08:55:00.966Z,24.90
2019-04-09T08:57:37.931Z,25.90
2019-04-09T09:01:17.579Z,26.17
2019-04-09T09:03:20.656Z,22.93
2019-04-09T09:06:00.994Z,24.30
2019-04-09T09:08:41.173Z,25.73
2019-04-09T09:11:20.098Z,24.60
2019-04-09T09:14:17.009Z,24.53
2019-04-09T09:17:19.702Z,24.17
2019-04-09T09:20:10.188Z,27.20
2019-04-09T09:23:15.800Z,27.97
2019-04-09T09:26:08.968Z,29.17
2019-04-09T09:28:59.485Z,26.57
2019-04-09T09:31:41.608Z,27.30
2019-04-09T09:34:37.932Z,26.53
2019-04-09T09:37:32.203Z,32.67
2019-04-09T09:40:21.888Z,27.97
2019-04-09T09:43:15.384Z,27.93
2019-04-09T09:46:04.764Z,26.27
2019-04-09T09:48:56.142Z,26.23
2019-04-09T09:51:42.692Z,27.93
2019-04-09T09:54:20.854Z,29.17
2019-04-09T09:57:13.954Z,28.50
2019-04-09T10:00:07.379Z,29.63
2019-04-09T10:03:06.410Z,27.90
2019-04-09T10:05:54.432Z,28.80
2019-04-09T10:08:48.777Z,30.17
2019-04-09T10:11:54.081Z,31.90
2019-04-09T10:14:36.170Z,31.10
2019-04-09T10:17:40.877Z,27.93
2019-04-09T10:20:38.289Z,28.07
2019-04-09T10:23:38.097Z,31.03
2019-04-09T10:26:29.446Z,29.30
2019-04-09T10:29:20.049Z,28.77
2019-04-09T10:32:28.835Z,29.63
2019-04-09T10:35:21.299Z,29.27
2019-04-09T10:38:21.707Z,27.67
2019-04-09T10:41:31.329Z,28.90
2019-04-09T10:44:14.975Z,27.27
2019-04-09T10:47:12.550Z,28.00
2019-04-09T10:49:55.845Z,28.30
2019-04-09T10:52:43.895Z,28.63
2019-04-09T10:55:22.634Z,32.30
2019-04-09T10:58:20.866Z,28.07
2019-04-09T11:01:09.733Z,28.53
2019-04-09T11:04:00.981Z,28.63
2019-04-09T11:06:54.233Z,26.90
2019-04-09T11:09:41.055Z,28.30
2019-04-09T11:12:31.431Z,29.67
2019-04-09T11:15:20.181Z,29.33
2019-04-09T11:18:20.884Z,30.13
2019-04-09T11:21:14.800Z,27.50
2019-04-09T11:24:11.470Z,27.07
2019-04-09T11:27:03.294Z,29.40
2019-04-09T11:29:54.096Z,30.40
2019-04-09T11:32:48.546Z,28.97
2019-04-09T11:35:42.421Z,29.57
2019-04-09T11:38:32.245Z,29.33
2019-04-09T11:41:26.528Z,29.63
2019-04-09T11:44:06.883Z,30.77
2019-04-09T11:46:48.797Z,30.33
2019-04-09T11:49:42.646Z,31.00
2019-04-09T11:52:22.614Z,30.67
2019-04-09T11:55:16.305Z,31.07
2019-04-09T11:57:57.611Z,29.50
2019-04-09T12:00:54.330Z,30.90
2019-04-09T12:03:45.936Z,27.87
2019-04-09T12:06:45.396Z,31.50
2019-04-09T12:09:35.337Z,30.07
2019-04-09T12:12:29.497Z,35.80
2019-04-09T12:15:26.787Z,28.90
2019-04-09T12:18:20.415Z,32.23
2019-04-09T12:21:22.898Z,37.07
2019-04-09T12:24:17.351Z,33.23
2019-04-09T12:26:59.502Z,34.63
2019-04-09T12:30:03.524Z,32.70
2019-04-09T12:33:03.750Z,34.37
2019-04-09T12:35:44.511Z,31.23
2019-04-09T12:38:30.141Z,36.40
2019-04-09T12:41:30.321Z,34.00
2019-04-09T12:44:20.379Z,33.47
2019-04-09T12:47:13.533Z,33.07
2019-04-09T12:49:55.991Z,38.53
2019-04-09T12:52:46.634Z,33.53
2019-04-09T12:55:40.204Z,31.53
2019-04-09T12:58:36.700Z,34.23
2019-04-09T13:01:24.500Z,38.27
2019-04-09T13:04:18.512Z,32.30
2019-04-09T13:07:07.719Z,36.40
2019-04-09T13:10:07.077Z,35.90
2019-04-09T13:13:01.199Z,35.30
2019-04-09T13:15:49.393Z,35.83
2019-04-09T13:18:39.558Z,37.43
2019-04-09T13:21:39.191Z,37.17
2019-04-09T13:24:21.025Z,37.17
2019-04-09T13:27:14.113Z,35.57
2019-04-09T13:30:03.249Z,36.40
2019-04-09T13:32:54.021Z,34.37
2019-04-09T13:35:44.145Z,31.93
2019-04-09T13:38:34.697Z,35.73
2019-04-09T13:41:27.556Z,32.47
2019-04-09T13:44:09.241Z,31.27
2019-04-09T13:47:15.016Z,30.77
2019-04-09T13:50:08.554Z,31.23
2019-04-09T13:52:40.667Z,31.80
2019-04-09T13:55:12.636Z,33.57
2019-04-09T13:57:45.537Z,33.43
2019-04-09T14:00:17.710Z,32.60
2019-04-09T14:03:11.409Z,34.17
2019-04-09T14:05:34.564Z,31.23
2019-04-09T14:08:06.666Z,32.87
2019-04-09T14:10:47.886Z,32.50
2019-04-09T14:13:13.952Z,31.73
2019-04-09T14:15:46.835Z,29.20
2019-04-09T14:18:19.859Z,31.77
2019-04-09T14:20:54.661Z,28.93
2019-04-09T14:23:28.062Z,31.33
2019-04-09T14:26:10.556Z,29.30
2019-04-09T14:28:43.949Z,28.93
2019-04-09T14:31:15.945Z,29.33
2019-04-09T14:33:49.168Z,28.30
2019-04-09T14:36:22.583Z,28.77
2019-04-09T14:38:57.024Z,31.67
2019-04-09T14:41:32.463Z,28.23
2019-04-09T14:44:02.393Z,30.13
2019-04-09T14:46:34.221Z,31.07
2019-04-09T14:49:05.838Z,29.97
2019-04-09T14:51:38.058Z,32.07
2019-04-09T14:54:12.218Z,32.43
2019-04-09T14:56:47.975Z,30.93
2019-04-09T14:59:19.955Z,29.13
2019-04-09T15:01:51.694Z,31.57
2019-04-09T15:04:23.691Z,29.37
2019-04-09T15:06:56.445Z,32.63
2019-04-09T15:09:28.008Z,32.37
2019-04-09T15:11:59.636Z,31.33
2019-04-09T15:14:44.378Z,31.80
2019-04-09T15:17:16.500Z,32.27
2019-04-09T15:19:48.792Z,32.30
2019-04-09T15:22:23.289Z,29.10
2019-04-09T15:27:33.629Z,31.70
2019-04-09T15:30:06.998Z,39.53
2019-04-09T15:32:39.619Z,31.37
2019-04-09T15:35:14.211Z,31.00
2019-04-09T15:37:46.145Z,31.90
2019-04-09T15:40:17.771Z,33.47
2019-04-09T15:42:50.741Z,32.07
2019-04-09T15:45:22.930Z,35.47
2019-04-09T15:47:55.933Z,32.67
2019-04-09T15:50:40.344Z,33.17
2019-04-09T15:53:24.812Z,34.40
2019-04-09T15:55:46.493Z,31.30
2019-04-09T15:58:18.601Z,35.20
2019-04-09T16:00:50.584Z,34.17
2019-04-09T16:03:27.337Z,35.13
2019-04-09T16:05:55.379Z,34.97
2019-04-09T16:08:28.145Z,35.27
2019-04-09T16:10:59.847Z,33.63
2019-04-09T16:13:31.535Z,35.73
2019-04-09T16:16:03.007Z,36.37
2019-04-09T16:18:34.497Z,36.77
2019-04-09T16:21:06.023Z,37.57
2019-04-09T16:23:38.670Z,33.53
2019-04-09T16:26:10.587Z,35.70
2019-04-09T16:28:46.416Z,33.37
2019-04-09T16:31:18.224Z,32.97
2019-04-09T16:33:58.976Z,33.13
2019-04-09T16:36:25.876Z,36.57
2019-04-09T16:38:59.737Z,34.50
2019-04-09T16:41:34.619Z,35.77
2019-04-09T16:44:07.310Z,35.83
2019-04-09T16:46:39.486Z,34.97
2019-04-09T16:49:10.980Z,37.40
2019-04-09T16:51:43.039Z,37.13
2019-04-09T16:54:14.560Z,35.80
2019-04-09T16:56:46.530Z,34.87
2019-04-09T16:59:18.799Z,35.90
2019-04-09T17:01:50.437Z,36.50
2019-04-09T17:04:27.238Z,35.90
2019-04-09T17:06:55.414Z,35.50
2019-04-09T17:09:33.721Z,36.83
2019-04-09T17:12:00.962Z,34.03
2019-04-09T17:14:35.486Z,36.03
2019-04-09T17:17:09.243Z,36.13
2019-04-09T17:19:41.655Z,37.93
2019-04-09T17:22:14.172Z,35.27
2019-04-09T17:24:45.797Z,36.13
2019-04-09T17:27:21.360Z,37.07
2019-04-09T17:29:55.413Z,36.73
2019-04-09T17:32:27.794Z,36.57
2019-04-09T17:35:02.981Z,35.30
2019-04-09T17:37:35.809Z,35.67
2019-04-09T17:40:11.040Z,36.63
2019-04-09T17:42:47.249Z,37.37
2019-04-09T17:45:26.470Z,37.50
2019-04-09T17:47:59.088Z,35.40
2019-04-09T17:50:31.170Z,35.97
2019-04-09T17:53:06.455Z,37.93
2019-04-09T17:55:39.810Z,38.20
2019-04-09T17:58:11.311Z,36.17
2019-04-09T18:00:43.688Z,38.00
2019-04-09T18:03:15.763Z,39.13
2019-04-09T18:05:47.429Z,38.87
2019-04-09T18:08:22.260Z,39.27
2019-04-09T18:11:01.656Z,36.60
2019-04-09T18:13:33.780Z,37.77
2019-04-09T18:16:10.136Z,39.63
2019-04-09T18:18:42.052Z,38.67
2019-04-09T18:21:18.595Z,37.93
2019-04-09T18:23:51.100Z,39.23
2019-04-09T18:26:22.956Z,38.10
2019-04-09T18:28:54.689Z,36.00
2019-04-09T18:31:32.684Z,37.57
2019-04-09T18:34:00.655Z,37.00
2019-04-09T18:36:32.575Z,37.20
2019-04-09T18:39:05.905Z,36.97
2019-04-09T18:41:38.760Z,37.80
2019-04-09T18:44:10.266Z,38.93
2019-04-09T18:46:45.208Z,38.60
2019-04-09T18:49:21.252Z,38.33
2019-04-09T18:51:53.284Z,35.27
2019-04-09T18:54:25.795Z,35.93
2019-04-09T18:56:57.499Z,34.90
2019-04-09T18:59:29.920Z,39.10
2019-04-09T19:02:05.875Z,36.37
2019-04-09T19:04:38.287Z,36.50
2019-04-09T19:07:10.366Z,37.27
2019-04-09T19:09:44.140Z,33.70
2019-04-09T19:12:16.375Z,32.70
2019-04-09T19:14:48.299Z,37.03
2019-04-09T19:17:21.013Z,36.80
2019-04-09T19:19:52.809Z,34.97
2019-04-09T19:22:27.002Z,35.23
2019-04-09T19:24:59.769Z,33.87
2019-04-09T19:27:31.716Z,36.30
2019-04-09T19:30:04.345Z,36.20
2019-04-09T19:32:37.004Z,33.20
2019-04-09T19:35:18.849Z,34.97
2019-04-09T19:37:46.919Z,34.70
2019-04-09T19:40:25.828Z,33.63
2019-04-09T19:42:59.786Z,35.03
2019-04-09T19:45:35.693Z,33.90
2019-04-09T19:48:08.242Z,34.30
2019-04-09T19:50:43.862Z,31.93
2019-04-09T19:53:14.289Z,35.10
2019-04-09T19:55:48.799Z,33.50
2019-04-09T19:58:24.393Z,33.30
2019-04-09T20:00:55.984Z,33.97
2019-04-09T20:03:27.781Z,33.97
2019-04-09T20:05:59.438Z,35.23
2019-04-09T20:08:31.311Z,34.37
2019-04-09T20:11:03.379Z,34.77
2019-04-09T20:13:35.534Z,34.63
2019-04-09T20:16:10.804Z,37.13
2019-04-09T20:18:42.467Z,34.47
2019-04-09T20:21:14.626Z,35.37
2019-04-09T20:23:47.604Z,34.13
2019-04-09T20:26:20.143Z,36.40
2019-04-09T20:28:52.848Z,34.70
2019-04-09T20:31:25.046Z,33.37
2019-04-09T20:33:56.933Z,35.53
2019-04-09T20:36:30.178Z,34.10
2019-04-09T20:39:07.380Z,33.87
2019-04-09T20:41:42.077Z,31.70
2019-04-09T20:44:17.751Z,34.40
2019-04-09T20:46:51.897Z,33.07
2019-04-09T20:49:24.139Z,32.50
2019-04-09T20:51:55.603Z,32.70
2019-04-09T20:54:33.177Z,33.47
2019-04-09T20:57:05.143Z,30.80
2019-04-09T20:59:48.603Z,32.03
2019-04-09T21:02:28.725Z,33.63
2019-04-09T21:05:01.289Z,31.20
2019-04-09T21:07:33.865Z,32.10
2019-04-09T21:10:05.765Z,31.83
2019-04-09T21:12:37.190Z,29.80
2019-04-09T21:15:08.820Z,30.67
2019-04-09T21:17:41.708Z,30.10
2019-04-09T21:20:13.806Z,30.03
2019-04-09T21:22:45.433Z,31.97
2019-04-09T21:25:18.283Z,30.47
2019-04-09T21:27:49.873Z,30.63
2019-04-09T21:30:21.866Z,30.37
2019-04-09T21:32:53.336Z,31.90
2019-04-09T21:35:25.584Z,30.93
2019-04-09T21:37:57.106Z,31.70
2019-04-09T21:40:29.229Z,29.60
2019-04-09T21:43:00.938Z,31.00
2019-04-09T21:45:33.106Z,32.27
2019-04-09T21:48:04.968Z,30.63
2019-04-09T21:50:37.865Z,30.33
2019-04-09T21:53:09.428Z,28.33
2019-04-09T21:55:41.395Z,29.97
2019-04-09T21:58:13.961Z,30.87
2019-04-09T22:00:50.116Z,30.17
2019-04-09T22:03:29.672Z,27.60
2019-04-09T22:06:01.022Z,27.37
2019-04-09T22:08:32.746Z,31.33
2019-04-09T22:11:04.408Z,29.13
2019-04-09T22:13:35.877Z,31.17
2019-04-09T22:16:09.583Z,28.50
2019-04-09T22:18:41.212Z,30.83
2019-04-09T22:21:12.750Z,29.00
2019-04-09T22:23:49.834Z,28.97
2019-04-09T22:26:17.723Z,27.87
2019-04-09T22:28:50.451Z,28.80
2019-04-09T22:31:21.860Z,27.77
2019-04-09T22:33:53.366Z,29.30
2019-04-09T22:36:32.685Z,29.17
2019-04-09T22:38:58.217Z,28.53
2019-04-09T22:41:29.743Z,28.13
2019-04-09T22:44:05.074Z,28.70
2019-04-09T22:46:34.610Z,29.20
2019-04-09T22:49:07.232Z,28.93
2019-04-09T22:51:39.233Z,27.60
2019-04-09T22:54:11.724Z,29.23
2019-04-09T22:56:43.545Z,27.83
2019-04-09T22:59:15.068Z,27.53
2019-04-09T23:02:01.611Z,28.90
2019-04-09T23:04:46.428Z,29.30
2019-04-09T23:07:24.061Z,28.00
2019-04-09T23:10:15.438Z,27.57
2019-04-09T23:12:50.298Z,28.53
2019-04-09T23:15:43.854Z,28.07
2019-04-09T23:18:15.379Z,27.23
2019-04-09T23:20:47.338Z,28.67
2019-04-09T23:23:20.815Z,28.53
2019-04-09T23:25:53.174Z,28.73
2019-04-09T23:28:25.428Z,28.13
2019-04-09T23:30:56.952Z,27.43
2019-04-09T23:33:28.446Z,28.90
2019-04-09T23:35:59.945Z,26.67
2019-04-09T23:38:32.578Z,29.17
2019-04-09T23:41:04.242Z,29.67
2019-04-09T23:43:36.566Z,29.67
2019-04-09T23:46:08.126Z,29.43
2019-04-09T23:48:40.248Z,28.93
2019-04-09T23:51:12.270Z,27.40
2019-04-09T23:53:43.850Z,28.00
2019-04-09T23:56:15.682Z,28.50
2019-04-09T23:58:47.471Z,29.40
